createdAt,value
2023-05-06T04:11:16.352Z,96880.88
2023-05-06T04:13:19.616Z,96871.34
2023-05-06T04:15:22.911Z,96882.47
2023-05-06T04:17:25.790Z,96878.13
2023-05-06T04:19:28.791Z,96881.53
2023-05-06T04:21:31.561Z,96886.22
2023-05-06T04:23:34.368Z,96886.06
2023-05-06T04:25:37.763Z,96886.72
2023-05-06T04:27:42.162Z,96884.91
2023-05-06T04:29:45.013Z,96892.44
2023-05-06T04:31:48.027Z,96890.91
2023-05-06T04:33:53.380Z,96888.28
2023-05-06T04:35:56.447Z,96886.72
2023-05-06T04:37:59.223Z,96891.03
2023-05-06T04:40:02.770Z,96891.59
2023-05-06T04:42:05.883Z,96894.28
2023-05-06T04:44:10.022Z,96891.09
2023-05-06T04:46:12.946Z,96899.41
2023-05-06T04:48:17.256Z,96902.63
2023-05-06T04:50:20.137Z,96909.88
2023-05-06T04:52:22.814Z,96910.44
2023-05-06T04:54:25.702Z,96914.19
2023-05-06T04:56:28.461Z,96902.13
2023-05-06T04:58:31.297Z,96912.38
2023-05-06T05:00:36.053Z,96910.00
2023-05-06T05:02:39.018Z,96915.91
2023-05-06T05:04:41.873Z,96908.44
2023-05-06T05:06:45.195Z,96908.97
2023-05-06T05:08:47.975Z,96909.56
2023-05-06T05:10:50.929Z,96907.44
2023-05-06T05:12:53.766Z,96907.19
2023-05-06T05:14:56.515Z,96909.88
2023-05-06T05:17:00.664Z,96916.03
2023-05-06T05:19:03.930Z,96914.19
2023-05-06T05:21:07.194Z,96919.53
2023-05-06T05:23:09.989Z,96924.91
2023-05-06T05:25:13.261Z,96921.16
2023-05-06T05:27:16.226Z,96921.97
2023-05-06T05:29:18.951Z,96926.28
2023-05-06T05:31:21.895Z,96923.59
2023-05-06T05:33:26.425Z,96925.22
2023-05-06T05:35:29.229Z,96924.16
2023-05-06T05:37:32.689Z,96931.16
2023-05-06T05:39:35.480Z,96923.59
2023-05-06T05:41:38.536Z,96924.34
2023-05-06T05:43:41.312Z,96923.00
2023-05-06T05:45:44.121Z,96926.22
2023-05-06T05:47:46.951Z,96922.47
2023-05-06T05:49:51.113Z,96922.28
2023-05-06T05:51:53.891Z,96919.72
2023-05-06T05:53:56.853Z,96926.00
2023-05-06T05:55:59.777Z,96929.38
2023-05-06T05:58:02.702Z,96931.63
2023-05-06T06:00:06.754Z,96940.31
2023-05-06T06:02:09.588Z,96930.94
2023-05-06T06:04:12.430Z,96942.56
2023-05-06T06:06:16.636Z,96939.91
2023-05-06T06:08:19.676Z,96938.38
2023-05-06T06:10:22.895Z,96937.59
2023-05-06T06:12:25.721Z,96941.97
2023-05-06T06:14:28.732Z,96936.88
2023-05-06T06:16:31.588Z,96937.47
2023-05-06T06:18:34.456Z,96940.47
2023-05-06T06:20:38.168Z,96938.56
2023-05-06T06:22:42.324Z,96935.09
2023-05-06T06:24:45.649Z,96935.91
2023-05-06T06:26:49.218Z,96946.72
2023-05-06T06:28:51.934Z,96938.97
2023-05-06T06:30:54.476Z,96940.91
2023-05-06T06:32:58.803Z,96935.28
2023-05-06T06:35:01.717Z,96939.84
2023-05-06T06:37:06.210Z,96928.81
2023-05-06T06:39:14.056Z,96934.19
2023-05-06T06:41:17.179Z,96937.16
2023-05-06T06:43:20.770Z,96936.56
2023-05-06T06:45:24.119Z,96936.56
2023-05-06T06:47:27.044Z,96937.41
2023-05-06T06:49:31.272Z,96931.19
2023-05-06T06:51:34.286Z,96938.22
2023-05-06T06:53:37.072Z,96936.56
2023-05-06T06:55:44.328Z,96932.22
2023-05-06T06:57:47.499Z,96934.09
2023-05-06T06:59:53.848Z,96930.59
2023-05-06T07:01:56.630Z,96927.38
2023-05-06T07:04:00.153Z,96932.22
2023-05-06T07:06:03.069Z,96936.50
2023-05-06T07:08:06.074Z,96938.38
2023-05-06T07:10:10.920Z,96939.41
2023-05-06T07:12:15.199Z,96939.13
2023-05-06T07:14:17.957Z,96940.75
2023-05-06T07:16:20.794Z,96942.63
2023-05-06T07:18:23.602Z,96942.34
2023-05-06T07:20:26.434Z,96946.66
2023-05-06T07:22:29.761Z,96942.06
2023-05-06T07:24:33.488Z,96940.19
2023-05-06T07:26:36.860Z,96941.25
2023-05-06T07:28:41.025Z,96942.59
2023-05-06T07:30:44.176Z,96940.16
2023-05-06T07:32:47.246Z,96936.34
2023-05-06T07:34:50.285Z,96946.03
2023-05-06T07:36:53.096Z,96940.09
2023-05-06T07:38:56.168Z,96936.91
2023-05-06T07:40:59.051Z,96935.88
2023-05-06T07:43:02.076Z,96935.28
2023-05-06T07:45:07.416Z,96937.41
2023-05-06T07:47:10.485Z,96939.03
2023-05-06T07:49:13.454Z,96943.94
2023-05-06T07:51:17.629Z,96934.78
2023-05-06T07:53:20.448Z,96938.84
2023-05-06T07:55:23.185Z,96932.66
2023-05-06T07:57:25.927Z,96942.34
2023-05-06T07:59:28.762Z,96938.31
2023-05-06T08:01:33.113Z,96945.06
2023-05-06T08:03:36.303Z,96945.88
2023-05-06T08:05:39.127Z,96943.44
2023-05-06T08:07:42.435Z,96937.78
2023-05-06T08:09:45.269Z,96936.44
2023-05-06T08:11:48.070Z,96932.13
2023-05-06T08:13:51.108Z,96932.94
2023-05-06T08:15:54.225Z,96924.63
2023-05-06T08:18:04.423Z,96932.41
2023-05-06T08:20:15.273Z,96923.88
2023-05-06T08:22:18.014Z,96931.41
2023-05-06T08:24:21.430Z,96929.53
2023-05-06T08:26:24.414Z,96926.03
2023-05-06T08:28:29.115Z,96922.53
2023-05-06T08:30:32.253Z,96917.97
2023-05-06T08:32:35.102Z,96926.84
2023-05-06T08:34:39.214Z,96926.34
2023-05-06T08:36:42.745Z,96916.13
2023-05-06T08:38:50.487Z,96921.28
2023-05-06T08:40:54.531Z,96924.22
2023-05-06T08:43:00.410Z,96919.09
2023-05-06T08:45:03.188Z,96921.28
2023-05-06T08:47:06.435Z,96915.66
2023-05-06T08:49:09.698Z,96918.63
2023-05-06T08:51:15.229Z,96911.09
2023-05-06T08:53:18.152Z,96914.59
2023-05-06T08:55:22.997Z,96921.31
2023-05-06T08:57:26.336Z,96916.25
2023-05-06T08:59:32.879Z,96903.38
2023-05-06T09:01:36.858Z,96910.34
2023-05-06T09:03:39.747Z,96907.13
2023-05-06T09:05:42.840Z,96908.53
2023-05-06T09:07:46.950Z,96911.50
2023-05-06T09:09:50.057Z,96902.91
2023-05-06T09:11:55.059Z,96908.28
2023-05-06T09:14:12.644Z,96910.69
2023-05-06T09:16:29.395Z,96909.63
2023-05-06T09:18:33.108Z,96901.88
2023-05-06T09:20:36.315Z,96902.41
2023-05-06T09:22:40.126Z,96902.44
2023-05-06T09:24:44.649Z,96905.44
2023-05-06T09:26:48.407Z,96901.09
2023-05-06T09:28:51.806Z,96898.13
2023-05-06T09:30:54.587Z,96895.44
2023-05-06T09:32:58.382Z,96899.19
2023-05-06T09:35:01.922Z,96891.66
2023-05-06T09:37:04.676Z,96879.81
2023-05-06T09:39:08.643Z,96895.22
2023-05-06T09:41:14.030Z,96881.47
2023-05-06T09:43:17.005Z,96883.09
2023-05-06T09:45:20.130Z,96875.03
2023-05-06T09:47:23.773Z,96876.09
2023-05-06T09:49:27.507Z,96877.19
2023-05-06T09:51:32.588Z,96874.53
2023-05-06T09:53:37.029Z,96880.47
2023-05-06T09:55:41.067Z,96868.88
2023-05-06T09:57:45.714Z,96871.31
2023-05-06T09:59:49.731Z,96869.41
2023-05-06T10:01:53.496Z,96864.03
2023-05-06T10:03:57.601Z,96860.53
2023-05-06T10:06:02.905Z,96867.53
2023-05-06T10:08:07.740Z,96869.41
2023-05-06T10:10:14.392Z,96855.16
2023-05-06T10:12:17.866Z,96858.13
2023-05-06T10:14:22.106Z,96858.38
2023-05-06T10:16:24.957Z,96851.66
2023-05-06T10:18:30.747Z,96844.94
2023-05-06T10:20:36.607Z,96846.53
2023-05-06T10:22:47.600Z,96849.25
2023-05-06T10:24:57.088Z,96839.28
2023-05-06T10:27:03.246Z,96842.78
2023-05-06T10:29:11.000Z,96834.72
2023-05-06T10:31:15.222Z,96840.09
2023-05-06T10:33:18.303Z,96834.16
2023-05-06T10:35:28.604Z,96835.78
2023-05-06T10:37:33.056Z,96832.81
2023-05-06T10:39:36.089Z,96828.56
2023-05-06T10:41:38.940Z,96830.44
2023-05-06T10:43:42.987Z,96833.44
2023-05-06T10:46:05.726Z,96825.66
2023-05-06T10:48:10.813Z,96820.81
2023-05-06T10:50:21.099Z,96820.53
2023-05-06T10:52:23.944Z,96811.91
2023-05-06T10:54:26.961Z,96814.91
2023-05-06T10:56:31.507Z,96811.94
2023-05-06T10:58:37.275Z,96813.28
2023-05-06T11:00:40.354Z,96813.81
2023-05-06T11:02:44.963Z,96810.06
2023-05-06T11:04:53.719Z,96803.31
2023-05-06T11:07:08.803Z,96800.88
2023-05-06T11:09:18.498Z,96805.19
2023-05-06T11:11:52.842Z,96801.47
2023-05-06T11:13:55.691Z,96796.59
2023-05-06T11:16:00.214Z,96795.53
2023-05-06T11:18:42.863Z,96797.13
2023-05-06T11:20:47.041Z,96792.84
2023-05-06T11:22:50.830Z,96792.03
2023-05-06T11:24:53.638Z,96788.78
2023-05-06T11:26:57.498Z,96783.66
2023-05-06T11:29:01.655Z,96793.34
2023-05-06T11:31:04.584Z,96785.28
2023-05-06T11:33:09.500Z,96785.28
2023-05-06T11:35:12.996Z,96781.78
2023-05-06T11:37:26.862Z,96773.47
2023-05-06T11:39:33.220Z,96774.00
2023-05-06T11:41:40.827Z,96779.91
2023-05-06T11:43:47.369Z,96775.59
2023-05-06T11:45:51.097Z,96768.03
2023-05-06T11:47:55.838Z,96768.34
2023-05-06T11:49:59.010Z,96760.50
2023-05-06T11:52:01.877Z,96769.66
2023-05-06T11:54:08.254Z,96769.94
2023-05-06T11:56:11.028Z,96763.19
2023-05-06T11:58:16.612Z,96770.19
2023-05-06T12:00:21.673Z,96766.41
2023-05-06T12:02:24.509Z,96760.75
2023-05-06T12:04:27.888Z,96773.44
2023-05-06T12:06:35.555Z,96758.09
2023-05-06T12:08:38.894Z,96759.16
2023-05-06T12:10:43.360Z,96756.19
2023-05-06T12:12:46.215Z,96755.91
2023-05-06T12:14:50.354Z,96764.53
2023-05-06T12:16:55.967Z,96757.00
2023-05-06T12:18:59.193Z,96759.97
2023-05-06T12:21:03.719Z,96755.38
2023-05-06T12:23:07.298Z,96755.38
2023-05-06T12:25:17.110Z,96742.19
2023-05-06T12:27:34.564Z,96744.59
2023-05-06T12:29:37.529Z,96749.72
2023-05-06T12:31:40.325Z,96749.44
2023-05-06T12:33:49.005Z,96740.31
2023-05-06T12:35:52.738Z,96742.44
2023-05-06T12:37:55.641Z,96735.16
2023-05-06T12:39:59.361Z,96744.91
2023-05-06T12:42:02.496Z,96734.91
2023-05-06T12:44:33.348Z,96743.81
2023-05-06T12:46:36.180Z,96742.44
2023-05-06T12:48:39.969Z,96736.50
2023-05-06T12:50:44.334Z,96740.25
2023-05-06T12:52:47.227Z,96745.41
2023-05-06T12:54:52.653Z,96736.22
2023-05-06T12:56:55.592Z,96735.41
2023-05-06T12:59:00.273Z,96732.41
2023-05-06T13:01:09.678Z,96730.53
2023-05-06T13:03:13.720Z,96723.25
2023-05-06T13:05:16.801Z,96715.16
2023-05-06T13:07:19.555Z,96718.38
2023-05-06T13:09:22.864Z,96717.34
2023-05-06T13:11:26.062Z,96707.34
2023-05-06T13:13:29.149Z,96718.91
2023-05-06T13:15:31.913Z,96704.63
2023-05-06T13:17:36.118Z,96705.16
2023-05-06T13:19:38.922Z,96708.38
2023-05-06T13:21:42.499Z,96703.50
2023-05-06T13:23:47.730Z,96702.41
2023-05-06T13:26:03.737Z,96698.91
2023-05-06T13:28:07.794Z,96695.69
2023-05-06T13:30:11.160Z,96702.69
2023-05-06T13:32:14.867Z,96704.31
2023-05-06T13:34:19.483Z,96699.72
2023-05-06T13:36:22.417Z,96697.03
2023-05-06T13:38:25.474Z,96699.72
2023-05-06T13:40:28.441Z,96696.22
2023-05-06T13:42:31.228Z,96691.91
2023-05-06T13:44:34.096Z,96683.81
2023-05-06T13:46:37.041Z,96685.44
2023-05-06T13:48:39.877Z,96685.16
2023-05-06T13:50:45.953Z,96688.66
2023-05-06T13:52:48.684Z,96677.56
2023-05-06T13:54:51.463Z,96678.38
2023-05-06T13:56:54.313Z,96677.84
2023-05-06T13:58:57.221Z,96674.63
2023-05-06T14:00:59.991Z,96680.03
2023-05-06T14:03:03.327Z,96670.03
2023-05-06T14:05:07.232Z,96669.47
2023-05-06T14:07:11.350Z,96671.38
2023-05-06T14:09:14.378Z,96668.69
2023-05-06T14:11:17.244Z,96676.47
2023-05-06T14:13:20.190Z,96671.38
2023-05-06T14:15:23.157Z,96675.44
2023-05-06T14:17:25.934Z,96672.47
2023-05-06T14:19:29.974Z,96675.16
2023-05-06T14:21:33.092Z,96673.53
2023-05-06T14:23:37.900Z,96674.06
2023-05-06T14:25:43.033Z,96667.06
2023-05-06T14:27:46.255Z,96660.31
2023-05-06T14:29:49.158Z,96666.50
2023-05-06T14:31:53.194Z,96665.69
2023-05-06T14:33:56.188Z,96671.91
2023-05-06T14:36:00.053Z,96670.28
2023-05-06T14:38:03.202Z,96684.28
2023-05-06T14:40:10.209Z,96681.88
2023-05-06T14:42:13.048Z,96682.16
2023-05-06T14:44:15.768Z,96675.44
2023-05-06T14:46:18.871Z,96682.97
2023-05-06T14:48:21.768Z,96683.53
2023-05-06T14:50:24.642Z,96686.50
2023-05-06T14:52:27.558Z,96684.91
2023-05-06T14:54:30.768Z,96673.88
2023-05-06T14:56:34.950Z,96665.50
2023-05-06T14:58:39.239Z,96656.38
2023-05-06T15:00:41.961Z,96646.94
2023-05-06T15:02:44.748Z,96652.63
2023-05-06T15:04:47.603Z,96660.72
2023-05-06T15:06:50.487Z,96661.75
2023-05-06T15:08:54.279Z,96661.19
2023-05-06T15:10:57.042Z,96655.25
2023-05-06T15:13:01.201Z,96649.84
2023-05-06T15:15:04.853Z,96635.03
2023-05-06T15:17:08.029Z,96628.84
2023-05-06T15:19:11.057Z,96644.47
2023-05-06T15:21:13.913Z,96649.84
2023-05-06T15:23:16.802Z,96650.41
2023-05-06T15:25:33.413Z,96650.13
2023-05-06T15:27:37.442Z,96645.78
2023-05-06T15:29:44.080Z,96642.50
2023-05-06T15:31:47.071Z,96651.97
2023-05-06T15:33:50.095Z,96658.41
2023-05-06T15:35:53.004Z,96658.69
2023-05-06T15:37:58.446Z,96669.47
2023-05-06T15:40:01.426Z,96665.44
2023-05-06T15:42:04.638Z,96672.47
2023-05-06T15:44:07.447Z,96669.75
2023-05-06T15:46:14.020Z,96669.75
2023-05-06T15:48:16.843Z,96665.44
2023-05-06T15:50:32.704Z,96670.84
2023-05-06T15:52:36.428Z,96663.84
2023-05-06T15:54:39.969Z,96666.78
2023-05-06T15:56:43.988Z,96667.63
2023-05-06T15:58:47.061Z,96661.72
2023-05-06T16:00:49.893Z,96659.31
2023-05-06T16:02:54.121Z,96657.94
2023-05-06T16:04:56.951Z,96657.97
2023-05-06T16:07:00.015Z,96657.44
2023-05-06T16:09:02.855Z,96649.38
2023-05-06T16:11:05.945Z,96644.25
2023-05-06T16:13:08.825Z,96650.69
2023-05-06T16:15:12.058Z,96650.41
2023-05-06T16:17:15.554Z,96644.50
2023-05-06T16:19:19.749Z,96643.16
2023-05-06T16:21:23.204Z,96639.66
2023-05-06T16:23:26.269Z,96626.47
2023-05-06T16:25:29.192Z,96630.78
2023-05-06T16:27:32.220Z,96629.16
2023-05-06T16:29:36.609Z,96627.53
2023-05-06T16:31:47.234Z,96632.09
2023-05-06T16:33:50.860Z,96628.88
2023-05-06T16:35:55.644Z,96627.28
2023-05-06T16:37:58.996Z,96631.84
2023-05-06T16:40:02.293Z,96619.72
2023-05-06T16:42:04.957Z,96632.94
2023-05-06T16:44:08.123Z,96630.50
2023-05-06T16:46:11.089Z,96627.78
2023-05-06T16:48:14.602Z,96621.31
2023-05-06T16:50:17.393Z,96617.56
2023-05-06T16:52:22.081Z,96628.34
2023-05-06T16:54:25.739Z,96616.47
2023-05-06T16:56:44.132Z,96630.25
2023-05-06T16:58:51.440Z,96626.72
2023-05-06T17:00:54.738Z,96612.72
2023-05-06T17:02:57.832Z,96621.88
2023-05-06T17:05:00.822Z,96626.47
2023-05-06T17:07:04.195Z,96624.06
2023-05-06T17:09:08.385Z,96620.56
2023-05-06T17:11:11.744Z,96625.41
2023-05-06T17:13:14.850Z,96620.31
2023-05-06T17:15:17.800Z,96622.19
2023-05-06T17:17:24.715Z,96623.00
2023-05-06T17:19:27.623Z,96615.44
2023-05-06T17:21:31.867Z,96620.31
2023-05-06T17:23:36.259Z,96620.31
2023-05-06T17:25:40.410Z,96625.69
2023-05-06T17:27:43.416Z,96624.91
2023-05-06T17:29:47.227Z,96620.31
2023-05-06T17:31:50.383Z,96613.03
2023-05-06T17:33:53.916Z,96617.34
2023-05-06T17:35:56.966Z,96621.91
2023-05-06T17:37:59.724Z,96620.03
2023-05-06T17:40:03.363Z,96628.13
2023-05-06T17:42:08.518Z,96618.13
2023-05-06T17:44:11.929Z,96620.84
2023-05-06T17:46:19.486Z,96623.81
2023-05-06T17:48:22.778Z,96616.53
2023-05-06T17:50:25.699Z,96613.81
2023-05-06T17:52:28.701Z,96611.13
2023-05-06T17:54:34.776Z,96620.03
2023-05-06T17:56:38.197Z,96623.53
2023-05-06T17:58:43.048Z,96618.41
2023-05-06T18:00:46.159Z,96618.41
2023-05-06T18:02:50.269Z,96626.78
2023-05-06T18:04:54.265Z,96623.53
2023-05-06T18:06:57.296Z,96627.88
2023-05-06T18:09:00.161Z,96627.09
2023-05-06T18:11:03.225Z,96632.22
2023-05-06T18:13:06.503Z,96631.94
2023-05-06T18:15:12.338Z,96631.69
2023-05-06T18:17:15.747Z,96632.78
2023-05-06T18:19:19.753Z,96631.13
2023-05-06T18:21:22.891Z,96630.59
2023-05-06T18:23:26.527Z,96632.25
2023-05-06T18:25:29.367Z,96636.81
2023-05-06T18:27:32.417Z,96632.53
2023-05-06T18:29:35.504Z,96634.94
2023-05-06T18:31:39.653Z,96633.31
2023-05-06T18:33:42.557Z,96634.94
2023-05-06T18:35:45.469Z,96626.84
2023-05-06T18:37:48.222Z,96628.47
2023-05-06T18:39:51.005Z,96630.63
2023-05-06T18:41:53.845Z,96623.63
2023-05-06T18:43:56.573Z,96630.63
2023-05-06T18:45:59.516Z,96623.63
2023-05-06T18:48:04.012Z,96621.75
2023-05-06T18:50:08.398Z,96624.44
2023-05-06T18:52:14.377Z,96624.44
2023-05-06T18:54:17.146Z,96622.03
2023-05-06T18:56:21.302Z,96628.22
2023-05-06T18:58:24.199Z,96617.72
2023-05-06T19:00:28.257Z,96632.25
2023-05-06T19:02:31.135Z,96626.03
2023-05-06T19:04:35.680Z,96633.31
2023-05-06T19:06:38.948Z,96637.09
2023-05-06T19:08:41.726Z,96631.19
2023-05-06T19:10:44.596Z,96642.25
2023-05-06T19:12:47.427Z,96635.25
2023-05-06T19:14:50.501Z,96634.72
2023-05-06T19:16:53.309Z,96640.09
2023-05-06T19:18:56.184Z,96636.59
2023-05-06T19:21:00.747Z,96633.91
2023-05-06T19:23:04.779Z,96633.09
2023-05-06T19:25:08.837Z,96638.72
2023-05-06T19:27:11.678Z,96635.25
2023-05-06T19:29:15.140Z,96637.94
2023-05-06T19:31:17.988Z,96637.13
2023-05-06T19:33:21.161Z,96644.41
2023-05-06T19:35:24.329Z,96647.09
2023-05-06T19:37:30.127Z,96650.88
2023-05-06T19:39:32.926Z,96653.28
2023-05-06T19:41:35.716Z,96652.47
2023-05-06T19:43:42.242Z,96658.94
2023-05-06T19:45:45.019Z,96653.84
2023-05-06T19:47:47.874Z,96653.03
2023-05-06T19:49:51.426Z,96653.31
2023-05-06T19:51:54.175Z,96647.13
2023-05-06T19:53:58.291Z,96649.81
2023-05-06T19:56:09.094Z,96644.97
2023-05-06T19:58:13.962Z,96647.66
2023-05-06T20:00:18.276Z,96642.53
2023-05-06T20:02:21.451Z,96646.88
2023-05-06T20:04:24.146Z,96652.25
2023-05-06T20:06:29.316Z,96641.47
2023-05-06T20:08:32.192Z,96649.28
2023-05-06T20:10:36.822Z,96658.69
2023-05-06T20:12:39.584Z,96652.78
2023-05-06T20:14:42.308Z,96657.63
2023-05-06T20:16:45.181Z,96656.00
2023-05-06T20:18:47.919Z,96659.78
2023-05-06T20:20:50.794Z,96654.97
2023-05-06T20:22:53.743Z,96656.03
2023-05-06T20:25:08.624Z,96660.06
2023-05-06T20:27:13.223Z,96657.38
2023-05-06T20:29:16.062Z,96660.31
2023-05-06T20:31:19.099Z,96657.91
2023-05-06T20:33:22.195Z,96662.50
2023-05-06T20:35:25.620Z,96659.78
2023-05-06T20:37:29.314Z,96660.06
2023-05-06T20:39:32.140Z,96664.66
2023-05-06T20:41:34.899Z,96670.31
2023-05-06T20:43:39.043Z,96669.78
2023-05-06T20:45:42.038Z,96662.50
2023-05-06T20:47:45.592Z,96668.94
